createdAt,value
2019-01-04T00:00:05.572Z,1.03
2019-01-04T00:02:32.493Z,1.05
2019-01-04T00:04:59.440Z,0.96
2019-01-04T00:07:26.365Z,0.90
2019-01-04T00:09:53.349Z,1.02
2019-01-04T00:12:20.326Z,0.75
2019-01-04T00:14:47.327Z,0.72
2019-01-04T00:17:14.250Z,0.85
2019-01-04T00:19:41.121Z,0.89
2019-01-04T00:22:08.068Z,0.96
2019-01-04T00:24:34.955Z,0.92
2019-01-04T00:27:01.889Z,0.84
2019-01-04T00:29:28.804Z,0.85
2019-01-04T00:31:55.733Z,0.77
2019-01-04T00:34:22.665Z,0.83
2019-01-04T00:36:49.622Z,0.84
2019-01-04T00:39:16.501Z,0.85
2019-01-04T00:41:43.414Z,0.84
2019-01-04T00:44:10.337Z,0.86
2019-01-04T00:46:37.255Z,0.89
2019-01-04T00:49:04.190Z,1.00
2019-01-04T00:51:31.108Z,1.05
2019-01-04T00:53:57.979Z,1.06
2019-01-04T00:57:02.351Z,1.04
2019-01-04T01:00:01.350Z,1.15
2019-01-04T01:03:02.694Z,1.10
2019-01-04T01:06:25.986Z,1.05
2019-01-04T01:09:36.520Z,1.01
2019-01-04T01:12:44.091Z,1.05
2019-01-04T01:16:06.641Z,1.12
2019-01-04T01:19:16.932Z,1.13
2019-01-04T01:22:20.443Z,1.01
2019-01-04T01:25:17.282Z,0.90
2019-01-04T01:28:13.059Z,1.09
2019-01-04T01:31:27.321Z,1.02
2019-01-04T01:34:22.262Z,0.92
2019-01-04T01:37:25.612Z,1.05
2019-01-04T01:40:29.358Z,1.08
2019-01-04T01:43:33.150Z,0.99
2019-01-04T01:46:42.695Z,0.82
2019-01-04T01:49:50.334Z,0.92
2019-01-04T01:52:22.189Z,0.86
2019-01-04T01:54:49.103Z,1.06
2019-01-04T01:57:15.989Z,0.92
2019-01-04T01:59:42.896Z,0.94
2019-01-04T02:02:09.770Z,1.05
2019-01-04T02:04:36.721Z,1.12
2019-01-04T02:07:03.605Z,0.88
2019-01-04T02:09:30.501Z,0.89
2019-01-04T02:11:57.495Z,1.02
2019-01-04T02:14:24.400Z,1.01
2019-01-04T02:16:51.339Z,1.16
2019-01-04T02:19:18.286Z,1.13
2019-01-04T02:21:45.167Z,1.28
2019-01-04T02:24:12.087Z,1.15
2019-01-04T02:26:38.968Z,1.17
2019-01-04T02:29:05.906Z,1.15
2019-01-04T02:31:32.771Z,1.13
2019-01-04T02:33:59.732Z,1.12
2019-01-04T02:36:26.609Z,0.97
2019-01-04T02:38:53.548Z,1.18
2019-01-04T02:41:20.433Z,1.21
2019-01-04T02:43:47.339Z,1.01
2019-01-04T02:46:14.216Z,1.21
2019-01-04T02:48:41.156Z,1.08
2019-01-04T02:51:08.033Z,1.05
2019-01-04T02:53:34.950Z,1.10
2019-01-04T02:56:01.826Z,1.09
2019-01-04T02:58:28.762Z,1.01
2019-01-04T03:00:55.653Z,1.06
2019-01-04T03:03:22.521Z,1.13
2019-01-04T03:05:49.432Z,1.12
2019-01-04T03:08:16.315Z,1.17
2019-01-04T03:10:43.226Z,1.11
2019-01-04T03:13:10.095Z,1.15
2019-01-04T03:15:37.003Z,1.22
2019-01-04T03:18:03.886Z,1.04
2019-01-04T03:20:30.789Z,0.99
2019-01-04T03:22:57.690Z,1.03
2019-01-04T03:25:24.587Z,1.18
2019-01-04T03:27:51.473Z,1.20
2019-01-04T03:30:18.385Z,1.14
2019-01-04T03:32:45.280Z,1.19
2019-01-04T03:35:12.198Z,1.25
2019-01-04T03:37:41.852Z,1.33
2019-01-04T03:40:09.275Z,1.25
2019-01-04T03:42:36.151Z,1.32
2019-01-04T03:45:03.775Z,1.34
2019-01-04T03:47:30.657Z,1.29
2019-01-04T03:49:57.602Z,1.24
2019-01-04T03:52:24.479Z,1.39
2019-01-04T03:54:51.394Z,1.38
2019-01-04T03:57:18.274Z,1.35
2019-01-04T03:59:45.182Z,1.35
2019-01-04T04:02:12.064Z,1.37
2019-01-04T04:04:39.035Z,1.19
2019-01-04T04:07:06.035Z,1.23
2019-01-04T04:09:32.978Z,1.25
2019-01-04T04:11:59.896Z,1.31
2019-01-04T04:14:26.780Z,1.31
2019-01-04T04:16:53.709Z,1.29
2019-01-04T04:19:20.639Z,1.45
2019-01-04T04:21:47.600Z,1.37
2019-01-04T04:24:14.499Z,1.27
2019-01-04T04:26:41.421Z,1.47
2019-01-04T04:29:08.348Z,1.36
2019-01-04T04:31:35.291Z,1.70
2019-01-04T04:34:02.236Z,1.51
2019-01-04T04:36:29.168Z,1.43
2019-01-04T04:38:56.068Z,1.47
2019-01-04T04:41:22.982Z,1.37
2019-01-04T04:43:49.889Z,1.54
2019-01-04T04:46:16.811Z,1.43
2019-01-04T04:48:43.719Z,1.53
2019-01-04T04:51:10.653Z,1.40
2019-01-04T04:53:37.558Z,1.63
2019-01-04T04:56:04.452Z,1.57
2019-01-04T04:58:31.359Z,1.52
2019-01-04T05:00:58.291Z,1.60
2019-01-04T05:03:25.204Z,1.53
2019-01-04T05:05:52.135Z,1.56
2019-01-04T05:08:19.012Z,1.59
2019-01-04T05:10:45.952Z,1.63
2019-01-04T05:13:12.859Z,1.61
2019-01-04T05:15:39.884Z,1.66
2019-01-04T05:18:06.794Z,1.61
2019-01-04T05:20:33.702Z,1.68
2019-01-04T05:23:00.586Z,1.55
2019-01-04T05:25:27.498Z,1.60
2019-01-04T05:27:54.373Z,1.63
2019-01-04T05:30:21.251Z,1.59
2019-01-04T05:32:48.163Z,1.67
2019-01-04T05:35:15.080Z,1.59
2019-01-04T05:37:42.009Z,1.65
2019-01-04T05:40:08.940Z,1.60
2019-01-04T05:42:35.868Z,1.57
2019-01-04T05:45:02.994Z,1.67
2019-01-04T05:47:29.919Z,1.72
2019-01-04T05:49:56.915Z,1.73
2019-01-04T05:52:23.851Z,1.70
2019-01-04T05:54:50.765Z,1.65
2019-01-04T05:57:17.744Z,1.83
2019-01-04T05:59:44.730Z,1.79
2019-01-04T06:02:11.685Z,1.82
2019-01-04T06:04:38.565Z,1.88
2019-01-04T06:07:05.513Z,1.79
2019-01-04T06:09:32.439Z,1.65
2019-01-04T06:11:59.448Z,1.86
2019-01-04T06:14:26.337Z,1.73
2019-01-04T06:16:53.257Z,1.79
2019-01-04T06:19:20.171Z,1.75
2019-01-04T06:21:47.099Z,1.59
2019-01-04T06:24:14.082Z,1.61
2019-01-04T06:26:41.018Z,1.59
2019-01-04T06:29:07.931Z,1.57
2019-01-04T06:31:34.854Z,1.52
2019-01-04T06:34:01.880Z,1.61
2019-01-04T06:36:28.830Z,1.60
2019-01-04T06:38:55.720Z,1.56
2019-01-04T06:41:22.605Z,1.52
2019-01-04T06:43:50.021Z,1.60
2019-01-04T06:46:16.921Z,1.63
2019-01-04T06:48:44.092Z,1.68
2019-01-04T06:51:11.001Z,1.72
2019-01-04T06:53:37.928Z,1.58
2019-01-04T06:56:07.031Z,1.50
2019-01-04T06:58:33.967Z,1.59
2019-01-04T07:01:00.891Z,1.64
2019-01-04T07:03:27.811Z,1.60
2019-01-04T07:05:54.701Z,1.61
2019-01-04T07:08:21.643Z,1.59
2019-01-04T07:10:48.597Z,1.69
2019-01-04T07:13:15.634Z,1.75
2019-01-04T07:15:42.518Z,1.84
2019-01-04T07:18:09.441Z,1.77
2019-01-04T07:20:36.355Z,1.81
2019-01-04T07:23:03.301Z,1.75
2019-01-04T07:25:30.190Z,1.75
2019-01-04T07:27:57.112Z,1.70
2019-01-04T07:30:24.013Z,1.65
2019-01-04T07:32:50.940Z,1.71
2019-01-04T07:35:17.811Z,1.62
2019-01-04T07:37:44.737Z,1.65
2019-01-04T07:40:12.357Z,1.79
2019-01-04T07:42:39.377Z,1.87
2019-01-04T07:45:07.697Z,1.78
2019-01-04T07:47:34.780Z,1.71
2019-01-04T07:50:02.236Z,1.81
2019-01-04T07:52:29.167Z,1.84
2019-01-04T07:54:56.104Z,1.95
2019-01-04T07:57:23.085Z,1.93
2019-01-04T07:59:50.219Z,2.00
2019-01-04T08:02:45.911Z,1.95
2019-01-04T08:05:15.548Z,1.94
2019-01-04T08:07:42.448Z,2.08
2019-01-04T08:10:09.391Z,2.11
2019-01-04T08:12:36.289Z,2.18
2019-01-04T08:15:04.569Z,2.23
2019-01-04T08:17:31.477Z,2.29
2019-01-04T08:19:58.407Z,2.36
2019-01-04T08:22:25.296Z,2.38
2019-01-04T08:24:52.230Z,2.36
2019-01-04T08:27:19.144Z,2.37
2019-01-04T08:29:46.061Z,2.47
2019-01-04T08:32:12.958Z,2.49
2019-01-04T08:34:39.896Z,2.56
2019-01-04T08:37:06.795Z,2.68
2019-01-04T08:39:33.715Z,2.60
2019-01-04T08:42:00.615Z,2.71
2019-01-04T08:44:27.551Z,2.52
2019-01-04T08:46:54.445Z,2.57
2019-01-04T08:49:21.434Z,2.65
2019-01-04T08:51:48.334Z,2.61
2019-01-04T08:54:15.275Z,2.76
2019-01-04T08:56:42.169Z,2.83
2019-01-04T08:59:09.121Z,2.86
2019-01-04T09:01:36.022Z,2.90
2019-01-04T09:04:02.952Z,2.84
2019-01-04T09:06:29.913Z,2.93
2019-01-04T09:08:56.817Z,3.06
2019-01-04T09:11:23.748Z,3.13
2019-01-04T09:13:50.798Z,2.95
2019-01-04T09:16:17.723Z,3.04
2019-01-04T09:18:44.681Z,3.12
2019-01-04T09:21:11.691Z,3.16
2019-01-04T09:23:38.584Z,3.28
2019-01-04T09:26:05.502Z,3.33
2019-01-04T09:28:32.426Z,3.36
2019-01-04T09:30:59.373Z,3.28
2019-01-04T09:33:26.309Z,3.48
2019-01-04T09:35:53.242Z,3.47
2019-01-04T09:38:20.126Z,3.45
2019-01-04T09:40:51.251Z,3.44
2019-01-04T09:43:18.198Z,3.55
2019-01-04T09:45:45.143Z,3.54
2019-01-04T09:48:12.031Z,3.68
2019-01-04T09:50:39.021Z,3.64
2019-01-04T09:53:05.970Z,3.63
2019-01-04T09:55:32.897Z,3.62
2019-01-04T09:57:59.790Z,3.62
2019-01-04T10:00:26.752Z,3.66
2019-01-04T10:02:53.739Z,3.66
2019-01-04T10:05:20.698Z,3.72
2019-01-04T10:07:47.656Z,3.79
2019-01-04T10:10:14.607Z,4.00
2019-01-04T10:12:41.534Z,3.84
2019-01-04T10:15:11.301Z,3.82
2019-01-04T10:17:38.240Z,3.88
2019-01-04T10:20:06.145Z,3.84
2019-01-04T10:22:33.064Z,3.95
2019-01-04T10:25:00.325Z,3.90
2019-01-04T10:27:27.267Z,3.92
2019-01-04T10:29:55.617Z,3.95
2019-01-04T10:32:22.546Z,3.86
2019-01-04T10:34:49.489Z,3.82
2019-01-04T10:37:16.493Z,3.91
2019-01-04T10:39:43.452Z,3.89
2019-01-04T10:42:10.389Z,3.90
2019-01-04T10:44:37.313Z,3.96
2019-01-04T10:47:04.245Z,4.03
2019-01-04T10:49:31.260Z,3.90
2019-01-04T10:51:58.294Z,3.96
2019-01-04T10:54:25.188Z,3.95
2019-01-04T10:56:52.135Z,4.02
2019-01-04T10:59:19.051Z,3.97
2019-01-04T11:01:45.984Z,4.05
2019-01-04T11:04:12.869Z,3.81
2019-01-04T11:06:39.857Z,4.00
2019-01-04T11:09:08.549Z,4.08
2019-01-04T11:11:35.512Z,3.98
2019-01-04T11:14:02.420Z,3.95
2019-01-04T11:16:29.355Z,3.95
2019-01-04T11:18:56.270Z,3.99
2019-01-04T11:21:23.437Z,4.05
2019-01-04T11:24:14.662Z,4.05
2019-01-04T11:27:00.305Z,4.05
2019-01-04T11:30:00.455Z,4.04
2019-01-04T11:33:19.889Z,4.01
2019-01-04T11:36:26.469Z,4.09
2019-01-04T11:39:35.165Z,4.01
2019-01-04T11:42:23.314Z,4.06
2019-01-04T11:45:17.997Z,4.02
2019-01-04T11:48:34.103Z,4.02
2019-01-04T11:51:28.708Z,4.07
2019-01-04T11:53:55.725Z,4.08
2019-01-04T11:56:22.645Z,3.95
2019-01-04T11:58:49.629Z,4.14
2019-01-04T12:01:16.558Z,4.06
2019-01-04T12:03:54.829Z,4.05
2019-01-04T12:06:21.725Z,4.10
2019-01-04T12:08:48.671Z,4.12
2019-01-04T12:11:15.568Z,4.04
2019-01-04T12:13:42.498Z,4.08
2019-01-04T12:16:09.396Z,4.11
2019-01-04T12:18:36.368Z,4.08
2019-01-04T12:21:03.293Z,4.15
2019-01-04T12:23:30.445Z,4.04
2019-01-04T12:25:57.403Z,4.19
2019-01-04T12:28:24.337Z,4.22
2019-01-04T12:30:51.246Z,4.19
2019-01-04T12:33:18.254Z,4.09
2019-01-04T12:35:45.188Z,4.07
2019-01-04T12:38:12.145Z,4.11
2019-01-04T12:40:39.102Z,4.04
2019-01-04T12:43:06.058Z,4.02
2019-01-04T12:45:32.992Z,3.99
2019-01-04T12:48:00.034Z,4.03
2019-01-04T12:50:26.955Z,4.02
2019-01-04T12:52:53.928Z,4.03
2019-01-04T12:55:20.835Z,4.03
2019-01-04T12:57:47.769Z,4.10
2019-01-04T13:00:14.670Z,3.91
2019-01-04T13:02:41.658Z,3.99
2019-01-04T13:05:08.542Z,3.94
2019-01-04T13:07:35.570Z,4.00
2019-01-04T13:10:02.714Z,3.97
2019-01-04T13:12:29.624Z,3.94
2019-01-04T13:14:56.627Z,3.96
2019-01-04T13:17:23.525Z,3.99
2019-01-04T13:19:50.727Z,4.04
2019-01-04T13:22:17.649Z,4.04
2019-01-04T13:24:44.600Z,4.03
2019-01-04T13:27:11.532Z,3.98
2019-01-04T13:29:38.466Z,4.03
2019-01-04T13:32:05.393Z,3.95
2019-01-04T13:34:32.333Z,3.98
2019-01-04T13:36:59.257Z,4.03
2019-01-04T13:39:26.297Z,4.09
2019-01-04T13:41:53.270Z,4.02
2019-01-04T13:44:20.246Z,3.98
2019-01-04T13:46:47.151Z,4.04
2019-01-04T13:49:14.152Z,3.97
2019-01-04T13:51:41.127Z,4.01
2019-01-04T13:54:08.082Z,4.11
2019-01-04T13:56:35.099Z,4.05
2019-01-04T13:59:02.045Z,4.02
2019-01-04T14:01:29.051Z,4.05
2019-01-04T14:03:55.970Z,4.10
2019-01-04T14:06:22.872Z,4.05
2019-01-04T14:08:49.825Z,4.05
2019-01-04T14:11:16.731Z,4.02
2019-01-04T14:13:43.675Z,4.17
2019-01-04T14:16:10.641Z,4.12
2019-01-04T14:18:37.577Z,4.15
2019-01-04T14:21:04.524Z,4.10
2019-01-04T14:23:31.419Z,4.08
2019-01-04T14:25:58.580Z,4.05
2019-01-04T14:28:25.492Z,4.08
2019-01-04T14:30:52.432Z,4.08
2019-01-04T14:33:19.316Z,4.00
2019-01-04T14:35:46.375Z,4.05
2019-01-04T14:38:13.321Z,4.12
2019-01-04T14:40:40.239Z,4.08
2019-01-04T14:43:07.196Z,4.09
2019-01-04T14:45:34.139Z,4.06
2019-01-04T14:48:01.060Z,4.03
2019-01-04T14:50:28.205Z,4.13
2019-01-04T14:52:55.101Z,4.09
2019-01-04T14:55:22.025Z,4.13
2019-01-04T14:57:51.126Z,4.09
2019-01-04T15:00:18.197Z,4.09
2019-01-04T15:02:45.346Z,4.15
2019-01-04T15:05:12.279Z,4.06
2019-01-04T15:07:39.404Z,4.08
2019-01-04T15:10:07.925Z,4.09
2019-01-04T15:12:34.859Z,4.05
2019-01-04T15:15:01.896Z,4.10
2019-01-04T15:17:28.880Z,4.09
2019-01-04T15:19:56.175Z,4.11
2019-01-04T15:22:23.113Z,4.19
2019-01-04T15:24:50.141Z,4.19
2019-01-04T15:27:17.059Z,4.16
2019-01-04T15:29:44.028Z,4.10
2019-01-04T15:32:10.989Z,4.13
2019-01-04T15:34:37.904Z,4.06
2019-01-04T15:37:04.956Z,4.06
2019-01-04T15:39:31.863Z,4.13
2019-01-04T15:41:58.773Z,4.12
2019-01-04T15:44:25.695Z,4.14
2019-01-04T15:46:52.691Z,4.14
2019-01-04T15:49:19.725Z,4.21
2019-01-04T15:51:46.653Z,4.21
2019-01-04T15:54:13.564Z,4.17
2019-01-04T15:56:40.651Z,4.21
2019-01-04T15:59:07.607Z,4.25
2019-01-04T16:01:34.526Z,4.20
2019-01-04T16:04:01.499Z,4.16
2019-01-04T16:06:28.442Z,4.20
2019-01-04T16:08:55.373Z,4.19
2019-01-04T16:11:22.298Z,4.19
2019-01-04T16:13:49.220Z,4.16
2019-01-04T16:16:16.162Z,4.25
2019-01-04T16:18:43.069Z,4.21
2019-01-04T16:21:10.044Z,4.22
2019-01-04T16:23:36.991Z,4.27
2019-01-04T16:26:03.937Z,4.24
2019-01-04T16:28:30.914Z,4.23
2019-01-04T16:30:57.847Z,4.25
2019-01-04T16:33:24.836Z,4.20
2019-01-04T16:35:51.936Z,4.20
2019-01-04T16:38:18.867Z,4.22
2019-01-04T16:40:45.780Z,4.28
2019-01-04T16:43:12.721Z,4.26
2019-01-04T16:45:40.716Z,4.25
2019-01-04T16:48:07.635Z,4.29
2019-01-04T16:50:34.548Z,4.28
2019-01-04T16:53:01.482Z,4.34
2019-01-04T16:55:28.526Z,4.27
2019-01-04T16:57:55.645Z,4.34
2019-01-04T17:00:22.545Z,4.30
2019-01-04T17:02:49.523Z,4.27
2019-01-04T17:05:16.635Z,4.32
2019-01-04T17:07:43.585Z,4.29
2019-01-04T17:10:10.489Z,4.28
2019-01-04T17:12:37.410Z,4.25
2019-01-04T17:15:04.634Z,4.30
2019-01-04T17:17:31.565Z,4.43
2019-01-04T17:19:58.482Z,4.31
2019-01-04T17:22:25.442Z,4.43
2019-01-04T17:24:52.331Z,4.44
2019-01-04T17:27:19.276Z,4.37
2019-01-04T17:29:46.201Z,4.43
2019-01-04T17:32:13.153Z,4.40
2019-01-04T17:34:40.054Z,4.43
2019-01-04T17:37:06.993Z,4.44
2019-01-04T17:39:33.903Z,4.47
2019-01-04T17:42:00.831Z,4.45
2019-01-04T17:44:27.779Z,4.44
2019-01-04T17:46:54.673Z,4.43
2019-01-04T17:49:21.630Z,4.47
2019-01-04T17:51:48.649Z,4.51
2019-01-04T17:54:15.750Z,4.50
2019-01-04T17:56:42.646Z,4.49
2019-01-04T17:59:09.585Z,4.50
2019-01-04T18:01:36.527Z,4.47
2019-01-04T18:04:03.560Z,4.50
2019-01-04T18:06:30.484Z,4.51
2019-01-04T18:08:57.443Z,4.50
2019-01-04T18:11:24.367Z,4.52
2019-01-04T18:13:51.284Z,4.51
2019-01-04T18:16:18.193Z,4.50
2019-01-04T18:18:45.212Z,4.53
2019-01-04T18:21:12.139Z,4.57
2019-01-04T18:23:39.086Z,4.51
2019-01-04T18:26:06.073Z,4.52
2019-01-04T18:28:33.358Z,4.56
2019-01-04T18:31:00.288Z,4.49
2019-01-04T18:33:27.409Z,4.50
2019-01-04T18:35:54.381Z,4.63
2019-01-04T18:38:21.328Z,4.56
2019-01-04T18:40:48.347Z,4.54
2019-01-04T18:43:15.342Z,4.58
2019-01-04T18:45:42.251Z,4.57
2019-01-04T18:48:09.185Z,4.62
2019-01-04T18:50:36.429Z,4.62
2019-01-04T18:53:03.431Z,4.63
2019-01-04T18:55:30.326Z,4.62
2019-01-04T18:57:57.389Z,4.61
2019-01-04T19:00:25.754Z,4.61
2019-01-04T19:02:52.685Z,4.58
2019-01-04T19:05:19.607Z,4.60
2019-01-04T19:07:46.623Z,4.57
2019-01-04T19:10:13.583Z,4.62
2019-01-04T19:12:40.508Z,4.57
2019-01-04T19:15:08.249Z,4.59
2019-01-04T19:17:35.184Z,4.59
2019-01-04T19:20:02.732Z,4.60
2019-01-04T19:22:29.654Z,4.64
2019-01-04T19:24:56.615Z,4.63
2019-01-04T19:27:23.536Z,4.63
2019-01-04T19:29:50.494Z,4.69
2019-01-04T19:32:17.504Z,4.69
2019-01-04T19:34:44.472Z,4.69
2019-01-04T19:37:11.418Z,4.70
2019-01-04T19:39:38.362Z,4.74
2019-01-04T19:42:05.304Z,4.70
2019-01-04T19:44:32.278Z,4.75
2019-01-04T19:46:59.237Z,4.81
2019-01-04T19:49:26.298Z,4.72
2019-01-04T19:51:53.293Z,4.61
2019-01-04T19:54:20.251Z,4.79
2019-01-04T19:56:47.164Z,4.77
2019-01-04T19:59:14.156Z,4.76
2019-01-04T20:01:41.075Z,4.79
2019-01-04T20:04:08.036Z,4.81
2019-01-04T20:07:36.283Z,4.80
2019-01-04T20:11:15.036Z,4.84
2019-01-04T20:14:48.467Z,4.78
2019-01-04T20:17:43.726Z,4.81
2019-01-04T20:20:42.260Z,4.80
2019-01-04T20:23:27.463Z,4.80
2019-01-04T20:26:28.774Z,4.85
2019-01-04T20:29:25.961Z,4.89
2019-01-04T20:32:16.925Z,4.83
2019-01-04T20:35:02.153Z,4.90
2019-01-04T20:37:54.413Z,4.91
2019-01-04T20:40:39.605Z,4.88
2019-01-04T20:43:38.491Z,5.01
2019-01-04T20:46:25.072Z,5.05
2019-01-04T20:49:17.484Z,4.93
2019-01-04T20:52:03.440Z,5.02
2019-01-04T20:54:50.038Z,4.95
2019-01-04T20:57:36.564Z,4.94
2019-01-04T21:00:41.776Z,5.02
2019-01-04T21:03:33.947Z,5.01
2019-01-04T21:06:19.228Z,5.02
2019-01-04T21:09:04.795Z,5.09
2019-01-04T21:11:50.279Z,5.07
2019-01-04T21:14:35.502Z,5.08
2019-01-04T21:17:36.882Z,5.04
2019-01-04T21:20:26.751Z,5.09
2019-01-04T21:23:12.407Z,5.07
2019-01-04T21:25:59.021Z,5.11
2019-01-04T21:29:00.697Z,5.10
2019-01-04T21:31:53.339Z,5.17
2019-01-04T21:34:42.882Z,5.18
2019-01-04T21:37:28.034Z,5.15
2019-01-04T21:40:10.544Z,5.23
2019-01-04T21:43:14.034Z,5.20
2019-01-04T21:45:59.453Z,5.27
2019-01-04T21:48:41.109Z,5.24
2019-01-04T21:51:27.703Z,5.36
2019-01-04T21:54:08.266Z,5.30
2019-01-04T21:56:55.077Z,5.32
2019-01-04T21:59:40.045Z,5.34
2019-01-04T22:02:32.448Z,5.42
2019-01-04T22:05:22.219Z,5.36
2019-01-04T22:08:17.786Z,5.46
2019-01-04T22:11:03.088Z,5.44
2019-01-04T22:13:48.028Z,5.42
2019-01-04T22:16:33.103Z,5.44
2019-01-04T22:19:23.935Z,5.48
2019-01-04T22:22:10.502Z,5.42
2019-01-04T22:25:02.949Z,5.46
2019-01-04T22:27:48.219Z,5.46
2019-01-04T22:30:40.458Z,5.45
2019-01-04T22:33:22.431Z,5.45
2019-01-04T22:36:11.873Z,5.43
2019-01-04T22:38:57.210Z,5.51
2019-01-04T22:41:40.887Z,5.45
2019-01-04T22:44:30.739Z,5.53
2019-01-04T22:47:22.529Z,5.49
2019-01-04T22:50:06.076Z,5.51
2019-01-04T22:52:55.446Z,5.55
2019-01-04T22:55:41.974Z,5.59
2019-01-04T22:58:20.419Z,5.55
2019-01-04T23:01:12.954Z,5.57
2019-01-04T23:03:58.232Z,5.51
2019-01-04T23:06:43.238Z,5.48
2019-01-04T23:09:38.382Z,5.50
2019-01-04T23:12:23.589Z,5.51
2019-01-04T23:15:19.886Z,5.57
2019-01-04T23:18:17.009Z,5.58
2019-01-04T23:21:04.020Z,5.58
2019-01-04T23:23:52.848Z,5.58
2019-01-04T23:26:51.087Z,5.57
2019-01-04T23:29:40.672Z,5.63
2019-01-04T23:32:25.899Z,5.56
2019-01-04T23:35:10.888Z,5.66
2019-01-04T23:37:57.452Z,5.58
2019-01-04T23:40:42.552Z,5.58
2019-01-04T23:43:33.236Z,5.64
2019-01-04T23:46:18.358Z,5.57
2019-01-04T23:49:04.296Z,5.59
2019-01-04T23:52:03.197Z,5.62
2019-01-04T23:55:07.698Z,5.57
2019-01-04T23:58:04.149Z,5.63
